Time;durP1;ratioP1;P1;durP2;ratioP2;P2;SDS_P1;SDS_P2;PMS_P1;PMS_P2;Temp;Humidity;BMP_temperature;BMP_pressure;BME280_temperature;BME280_humidity;BME280_pressure;Samples;Min_cycle;Max_cycle;Signal;HPM_P1;HPM_P2
2022/10/01 00:01:05;;;;;;;7.55;3.20;;;12.70;99.90;;;;;;5053146;28;20128;-85
2022/10/01 00:03:32;;;;;;;6.82;3.10;;;12.70;99.90;;;;;;5054504;28;20033;-85
2022/10/01 00:06:07;;;;;;;4.60;2.80;;;12.70;99.90;;;;;;5054365;28;20025;-85
2022/10/01 00:08:34;;;;;;;6.82;3.40;;;12.70;99.90;;;;;;5054365;28;20036;-85
2022/10/01 00:11:05;;;;;;;7.97;3.45;;;12.70;99.90;;;;;;5054525;28;20108;-85
2022/10/01 00:13:31;;;;;;;6.40;3.28;;;12.60;99.90;;;;;;5054444;28;20079;-85
2022/10/01 00:15:58;;;;;;;7.43;3.38;;;12.60;99.90;;;;;;5052939;28;20052;-86
2022/10/01 00:18:24;;;;;;;7.15;3.13;;;12.60;99.90;;;;;;5054163;28;20438;-85
2022/10/01 00:20:49;;;;;;;8.20;4.20;;;12.60;99.90;;;;;;5052582;28;20116;-85
2022/10/01 00:23:15;;;;;;;7.57;3.88;;;12.50;99.90;;;;;;5054160;28;20029;-85
2022/10/01 00:25:42;;;;;;;7.28;4.03;;;12.50;99.90;;;;;;5053998;28;20112;-85
2022/10/01 00:28:08;;;;;;;9.65;4.00;;;12.40;99.90;;;;;;5054002;28;20538;-85
2022/10/01 00:30:34;;;;;;;6.05;4.10;;;12.40;99.90;;;;;;5052702;28;20118;-85
2022/10/01 00:33:00;;;;;;;7.15;4.20;;;12.40;99.90;;;;;;5054137;28;20053;-85
2022/10/01 00:35:25;;;;;;;7.30;4.72;;;12.30;99.90;;;;;;5054062;28;20029;-85
2022/10/01 00:37:51;;;;;;;8.30;4.55;;;12.30;99.90;;;;;;5053588;28;20033;-85
2022/10/01 00:40:19;;;;;;;7.25;4.70;;;12.30;99.90;;;;;;5053680;28;20557;-85
2022/10/01 00:42:46;;;;;;;6.40;3.93;;;12.20;99.90;;;;;;5054044;28;20299;-85
2022/10/01 00:45:14;;;;;;;6.90;4.67;;;12.20;99.90;;;;;;5052851;28;20378;-85
2022/10/01 00:47:57;;;;;;;8.80;4.80;;;12.20;99.90;;;;;;5052240;28;20085;-86
2022/10/01 00:50:29;;;;;;;7.90;4.60;;;12.20;99.90;;;;;;5053655;28;20033;-85
2022/10/01 00:53:01;;;;;;;7.33;5.30;;;12.20;99.90;;;;;;5053630;28;20486;-85
2022/10/01 00:55:35;;;;;;;9.27;4.57;;;12.10;99.90;;;;;;5053671;28;20037;-85
2022/10/01 00:58:06;;;;;;;9.40;4.93;;;12.10;99.90;;;;;;5052177;28;20039;-85
2022/10/01 01:00:32;;;;;;;8.73;4.63;;;12.10;99.90;;;;;;5053170;28;20032;-85
2022/10/01 01:02:58;;;;;;;8.97;5.00;;;12.10;99.90;;;;;;5052213;28;20482;-85
2022/10/01 01:05:23;;;;;;;7.77;4.57;;;12.10;99.90;;;;;;5052225;28;20025;-85
2022/10/01 01:07:51;;;;;;;6.50;4.80;;;12.00;99.90;;;;;;5051800;28;20029;-85
2022/10/01 01:10:29;;;;;;;6.80;4.73;;;12.00;99.90;;;;;;5052742;28;20032;-85
2022/10/01 01:12:54;;;;;;;7.57;5.13;;;12.00;99.90;;;;;;5053368;28;20163;-85
2022/10/01 01:15:32;;;;;;;8.07;5.30;;;12.00;99.90;;;;;;5053426;28;20107;-85
2022/10/01 01:18:39;;;;;;;9.13;5.00;;;12.00;99.90;;;;;;5053037;28;20074;-85
2022/10/01 01:21:16;;;;;;;8.13;5.33;;;12.00;99.90;;;;;;5043726;28;20041;-85
2022/10/01 01:23:50;;;;;;;9.20;4.73;;;12.00;99.90;;;;;;5053097;28;20083;-85
2022/10/01 01:26:28;;;;;;;10.43;5.13;;;12.00;99.90;;;;;;5051714;28;20071;-85
2022/10/01 01:29:01;;;;;;;6.60;4.90;;;12.00;99.90;;;;;;5052856;28;20499;-85
2022/10/01 01:31:36;;;;;;;8.23;4.57;;;11.90;99.90;;;;;;5052917;28;20037;-85
2022/10/01 01:34:11;;;;;;;8.43;4.83;;;11.90;99.90;;;;;;5053030;28;20401;-85
2022/10/01 01:36:43;;;;;;;5.83;4.70;;;12.00;99.90;;;;;;5052702;28;20126;-85
2022/10/01 01:39:13;;;;;;;6.67;4.77;;;11.80;99.90;;;;;;5052505;28;20036;-85
2022/10/01 01:41:48;;;;;;;7.10;4.40;;;11.90;99.90;;;;;;5052607;28;20033;-85
2022/10/01 01:44:18;;;;;;;8.10;4.40;;;11.90;99.90;;;;;;5052758;28;20516;-85
2022/10/01 01:46:48;;;;;;;7.53;4.30;;;11.90;99.90;;;;;;5052512;28;20025;-85
2022/10/01 01:49:18;;;;;;;6.77;4.70;;;11.90;99.90;;;;;;5051383;28;20024;-85
2022/10/01 01:52:04;;;;;;;6.97;5.00;;;11.90;99.90;;;;;;5052510;28;20044;-85
2022/10/01 01:54:31;;;;;;;9.30;5.20;;;11.80;99.90;;;;;;5052660;28;20065;-85
2022/10/01 01:56:58;;;;;;;5.87;4.67;;;11.80;99.90;;;;;;5051055;28;20033;-85
2022/10/01 01:59:25;;;;;;;8.93;5.00;;;11.80;99.90;;;;;;5052365;28;20419;-85
2022/10/01 02:01:51;;;;;;;7.83;5.07;;;11.80;99.90;;;;;;5052457;28;20048;-85
2022/10/01 02:04:27;;;;;;;7.47;4.83;;;11.90;99.90;;;;;;5052529;28;20485;-85
2022/10/01 02:07:21;;;;;;;7.60;5.07;;;11.80;99.90;;;;;;5050868;28;20044;-85
2022/10/01 02:10:02;;;;;;;8.20;5.33;;;11.80;99.90;;;;;;5050802;28;20043;-85
2022/10/01 02:13:11;;;;;;;6.47;4.70;;;11.80;99.90;;;;;;5052832;28;20025;-85
2022/10/01 02:16:00;;;;;;;7.67;5.03;;;11.80;99.90;;;;;;5051138;28;20351;-85
2022/10/01 02:18:49;;;;;;;9.20;5.60;;;11.80;99.90;;;;;;5051180;28;20033;-85
2022/10/01 02:21:20;;;;;;;10.67;5.77;;;11.70;99.90;;;;;;5051261;28;20037;-85
2022/10/01 02:24:25;;;;;;;8.60;5.87;;;11.70;99.90;;;;;;5052326;28;20025;-85
2022/10/01 02:26:52;;;;;;;8.07;5.77;;;11.70;99.90;;;;;;5049616;28;20039;-85
2022/10/01 02:29:20;;;;;;;7.03;5.13;;;11.70;99.90;;;;;;5051999;28;20052;-85
2022/10/01 02:31:52;;;;;;;7.22;5.57;;;11.70;99.90;;;;;;5033827;28;20131;-85
2022/10/01 02:34:19;;;;;;;7.87;5.60;;;11.70;99.90;;;;;;5050812;28;20097;-85
2022/10/01 02:36:46;;;;;;;8.90;6.30;;;11.70;99.90;;;;;;5051629;28;20075;-85
2022/10/01 02:39:15;;;;;;;8.67;5.97;;;11.70;99.90;;;;;;5051616;28;20482;-85
2022/10/01 02:41:43;;;;;;;9.55;6.35;;;11.70;99.90;;;;;;5051845;28;20032;-85
2022/10/01 02:44:16;;;;;;;8.40;5.90;;;11.70;99.90;;;;;;5051963;28;20086;-85
2022/10/01 02:46:41;;;;;;;11.03;6.03;;;11.70;99.90;;;;;;5051486;28;20028;-85
2022/10/01 02:49:08;;;;;;;8.80;5.70;;;11.60;99.90;;;;;;5051540;28;20370;-85
2022/10/01 02:51:49;;;;;;;10.37;6.43;;;11.60;99.90;;;;;;5051533;28;20036;-85
2022/10/01 02:54:24;;;;;;;7.40;5.50;;;11.70;99.90;;;;;;5051531;28;20120;-85
2022/10/01 02:57:32;;;;;;;8.23;5.80;;;11.60;99.90;;;;;;5051203;28;20025;-85
2022/10/01 02:59:39;;;;;;;;;;;11.60;99.90;;;;;;5046260;28;20044;-85
2022/10/01 03:02:04;;;;;;;9.50;5.90;;;11.60;99.90;;;;;;5050385;28;19913;-85
2022/10/01 03:04:30;;;;;;;8.87;5.87;;;11.60;99.90;;;;;;5051578;28;20440;-85
2022/10/01 03:07:02;;;;;;;7.53;5.13;;;11.60;99.90;;;;;;5051315;28;20036;-85
2022/10/01 03:09:30;;;;;;;8.43;5.50;;;11.70;99.90;;;;;;5051253;28;20434;-85
2022/10/01 03:11:56;;;;;;;8.57;5.50;;;11.60;99.90;;;;;;5050224;28;20284;-86
2022/10/01 03:14:23;;;;;;;8.43;5.80;;;11.60;99.90;;;;;;5051348;28;20099;-86
2022/10/01 03:16:50;;;;;;;7.07;5.10;;;11.60;99.90;;;;;;5049778;28;20044;-86
2022/10/01 03:19:16;;;;;;;9.43;5.67;;;11.60;99.90;;;;;;5051203;28;20083;-85
2022/10/01 03:21:44;;;;;;;6.87;5.10;;;11.60;99.90;;;;;;5051104;28;20037;-85
2022/10/01 03:24:10;;;;;;;6.75;5.15;;;11.60;99.90;;;;;;5051691;28;20039;-85
2022/10/01 03:26:36;;;;;;;6.83;4.87;;;11.70;99.90;;;;;;5050056;28;20033;-85
2022/10/01 03:29:03;;;;;;;7.87;4.50;;;11.70;99.90;;;;;;5052011;28;20029;-85
2022/10/01 03:31:29;;;;;;;7.63;4.90;;;11.70;99.90;;;;;;5050836;28;20112;-85
2022/10/01 03:33:59;;;;;;;7.93;4.77;;;11.70;99.90;;;;;;5050847;28;20044;-85
2022/10/01 03:36:26;;;;;;;6.33;4.83;;;11.70;99.90;;;;;;5050580;28;20040;-85
2022/10/01 03:38:51;;;;;;;10.00;5.20;;;11.60;99.90;;;;;;5064558;22;20218;-83
2022/10/01 03:41:17;;;;;;;7.47;4.80;;;11.60;99.90;;;;;;5049222;28;20124;-83
2022/10/01 03:43:43;;;;;;;7.20;4.33;;;11.60;99.90;;;;;;5049299;28;20036;-83
2022/10/01 03:46:10;;;;;;;6.67;4.43;;;11.60;99.90;;;;;;5050400;28;20124;-83
2022/10/01 03:48:36;;;;;;;7.43;4.60;;;11.60;99.90;;;;;;5050311;28;20051;-84
2022/10/01 03:51:03;;;;;;;6.50;4.77;;;11.60;99.90;;;;;;5050491;28;20493;-84
2022/10/01 03:53:30;;;;;;;9.20;4.67;;;11.60;99.90;;;;;;5050816;28;20393;-84
2022/10/01 03:55:57;;;;;;;6.37;4.70;;;11.60;99.90;;;;;;5049081;28;20280;-84
2022/10/01 03:58:23;;;;;;;7.30;4.90;;;11.70;99.90;;;;;;5049214;28;20542;-84
2022/10/01 04:00:50;;;;;;;5.93;3.73;;;11.60;99.90;;;;;;5050162;28;20505;-85
2022/10/01 04:03:17;;;;;;;5.63;4.10;;;11.60;99.90;;;;;;5050362;28;20029;-84
2022/10/01 04:05:44;;;;;;;6.47;3.70;;;11.60;99.90;;;;;;5050301;28;20029;-84
2022/10/01 04:08:10;;;;;;;8.43;5.33;;;11.60;99.90;;;;;;5050406;28;20032;-84
2022/10/01 04:10:39;;;;;;;5.10;3.90;;;11.60;99.90;;;;;;5048870;28;20040;-84
2022/10/01 04:13:07;;;;;;;7.32;4.00;;;11.50;99.90;;;;;;5050304;28;20066;-84
2022/10/01 04:15:32;;;;;;;6.00;3.63;;;11.60;99.90;;;;;;5050304;28;20107;-84
2022/10/01 04:17:59;;;;;;;4.63;3.53;;;11.60;99.90;;;;;;5048522;28;20124;-84
2022/10/01 04:20:25;;;;;;;5.70;4.03;;;11.60;99.90;;;;;;5048693;28;20029;-84
2022/10/01 04:22:51;;;;;;;5.40;3.50;;;11.70;99.90;;;;;;5049031;28;20604;-84
2022/10/01 04:25:17;;;;;;;5.83;3.50;;;11.60;99.90;;;;;;5048920;28;20378;-84
2022/10/01 04:27:57;;;;;;;5.33;3.60;;;11.70;99.90;;;;;;5048556;28;20043;-84
2022/10/01 04:30:24;;;;;;;5.23;3.63;;;11.60;99.90;;;;;;5048722;28;20029;-84
2022/10/01 04:32:50;;;;;;;6.93;3.60;;;11.70;99.90;;;;;;5048908;28;20099;-84
2022/10/01 04:35:16;;;;;;;5.77;3.20;;;11.70;99.90;;;;;;5050142;28;20060;-84
2022/10/01 04:37:41;;;;;;;4.43;3.20;;;11.70;99.90;;;;;;5050056;28;20029;-84
2022/10/01 04:40:09;;;;;;;5.00;3.10;;;11.70;99.90;;;;;;5049731;28;20497;-84
2022/10/01 04:42:41;;;;;;;6.03;2.77;;;11.70;99.90;;;;;;5048805;28;20515;-84
2022/10/01 04:45:09;;;;;;;4.33;2.90;;;11.70;99.90;;;;;;5051732;28;20111;-84
2022/10/01 04:47:35;;;;;;;5.30;3.03;;;11.70;99.90;;;;;;5035816;28;20376;-84
2022/10/01 04:50:01;;;;;;;4.57;3.00;;;11.70;99.90;;;;;;5052095;28;20047;-84
2022/10/01 04:52:26;;;;;;;4.97;3.30;;;11.70;99.90;;;;;;5053754;28;20029;-85
2022/10/01 04:54:52;;;;;;;4.47;3.20;;;11.70;99.90;;;;;;5053525;28;20039;-84
2022/10/01 04:57:21;;;;;;;4.93;2.90;;;11.60;99.90;;;;;;5052206;28;20033;-84
2022/10/01 04:59:47;;;;;;;4.82;3.20;;;11.70;99.90;;;;;;5052069;28;20167;-84
2022/10/01 05:02:13;;;;;;;4.67;3.00;;;11.70;99.90;;;;;;5052299;28;20516;-84
2022/10/01 05:04:39;;;;;;;3.90;2.80;;;11.70;99.90;;;;;;5053563;28;20036;-84
2022/10/01 05:07:05;;;;;;;4.87;2.50;;;11.70;99.90;;;;;;5053035;28;20033;-84
2022/10/01 05:09:31;;;;;;;4.33;2.80;;;11.70;99.90;;;;;;5052981;28;20078;-84
2022/10/01 05:11:56;;;;;;;4.20;2.70;;;11.70;99.90;;;;;;5052023;28;20029;-84
2022/10/01 05:14:23;;;;;;;4.23;2.60;;;11.70;99.90;;;;;;5053319;28;20029;-84
2022/10/01 05:16:49;;;;;;;3.13;2.10;;;11.70;99.90;;;;;;5051634;28;20469;-84
2022/10/01 05:19:15;;;;;;;4.20;2.07;;;11.70;99.90;;;;;;5052840;28;20086;-84
2022/10/01 05:21:42;;;;;;;3.97;2.67;;;11.70;99.90;;;;;;5051711;28;20378;-84
2022/10/01 05:24:07;;;;;;;7.63;3.67;;;11.70;99.90;;;;;;5053039;28;20032;-84
2022/10/01 05:26:36;;;;;;;4.30;2.90;;;11.70;99.90;;;;;;5052719;28;20048;-84
2022/10/01 05:29:02;;;;;;;4.80;2.70;;;11.80;99.90;;;;;;5034731;28;20029;-84
2022/10/01 05:31:28;;;;;;;3.67;2.03;;;11.80;99.90;;;;;;5034948;28;20047;-84
2022/10/01 05:33:53;;;;;;;4.10;2.10;;;11.70;99.90;;;;;;5053008;28;20540;-84
2022/10/01 05:36:19;;;;;;;3.63;1.60;;;11.80;99.90;;;;;;5052667;28;20401;-84
2022/10/01 05:38:47;;;;;;;2.93;1.80;;;11.80;99.90;;;;;;5051161;28;20075;-84
2022/10/01 05:41:13;;;;;;;4.07;1.60;;;11.80;99.90;;;;;;5052545;28;20034;-84
2022/10/01 05:43:39;;;;;;;2.33;1.40;;;11.80;99.90;;;;;;5051727;28;20474;-84
2022/10/01 05:46:04;;;;;;;3.03;1.13;;;11.80;99.90;;;;;;5034483;28;20036;-84
2022/10/01 05:48:33;;;;;;;1.97;1.27;;;11.80;99.90;;;;;;5052358;28;20029;-84
2022/10/01 05:50:59;;;;;;;2.63;1.38;;;11.90;99.90;;;;;;5052484;28;20400;-84
2022/10/01 05:53:24;;;;;;;2.23;1.30;;;11.80;99.90;;;;;;5051294;28;20104;-84
2022/10/01 05:55:50;;;;;;;4.30;2.10;;;11.90;99.90;;;;;;5050919;28;20029;-84
2022/10/01 05:58:16;;;;;;;2.53;1.77;;;11.90;99.90;;;;;;5052278;28;20029;-84
2022/10/01 06:00:42;;;;;;;2.40;1.60;;;11.90;99.90;;;;;;5052156;28;20059;-84
2022/10/01 06:03:11;;;;;;;3.90;1.60;;;11.90;99.90;;;;;;5052308;28;20024;-84
2022/10/01 06:05:37;;;;;;;2.85;1.17;;;11.90;99.90;;;;;;5052253;28;20025;-84
2022/10/01 06:08:08;;;;;;;2.07;1.00;;;11.90;99.90;;;;;;5052038;28;20048;-84
2022/10/01 06:10:35;;;;;;;2.13;1.27;;;11.90;99.90;;;;;;5051860;28;20057;-84
2022/10/01 06:13:04;;;;;;;1.97;0.80;;;12.00;99.90;;;;;;5052026;28;20103;-84
2022/10/01 06:15:36;;;;;;;3.20;1.05;;;11.90;99.90;;;;;;5050827;28;20029;-84
2022/10/01 06:18:07;;;;;;;1.73;1.10;;;12.00;99.90;;;;;;5050651;28;20032;-84
2022/10/01 06:20:33;;;;;;;2.00;0.93;;;12.00;99.90;;;;;;5050415;28;20124;-84
2022/10/01 06:22:59;;;;;;;3.03;1.13;;;12.00;99.90;;;;;;5050661;28;20044;-84
2022/10/01 06:25:29;;;;;;;1.80;1.10;;;12.00;99.90;;;;;;5051878;28;20033;-84
2022/10/01 06:27:56;;;;;;;4.03;1.20;;;12.00;99.90;;;;;;5050416;28;20083;-84
2022/10/01 06:30:27;;;;;;;1.88;1.25;;;12.00;99.90;;;;;;5051580;28;20112;-84
2022/10/01 06:33:02;;;;;;;1.90;0.80;;;12.10;99.90;;;;;;5033968;28;20033;-84
2022/10/01 06:35:32;;;;;;;2.72;0.98;;;12.10;99.90;;;;;;5050323;28;20486;-84
2022/10/01 06:38:00;;;;;;;2.10;1.02;;;12.10;99.90;;;;;;5049926;28;20040;-84
2022/10/01 06:40:28;;;;;;;2.30;1.00;;;12.10;99.90;;;;;;5050211;28;20124;-84
2022/10/01 06:42:57;;;;;;;2.78;0.70;;;12.10;99.90;;;;;;5051601;28;20071;-84
2022/10/01 06:45:24;;;;;;;1.67;0.70;;;12.20;99.90;;;;;;5051490;28;20029;-84
2022/10/01 06:48:02;;;;;;;1.90;0.60;;;12.20;99.90;;;;;;5051509;28;20033;-84
2022/10/01 06:50:29;;;;;;;1.08;0.60;;;12.20;99.90;;;;;;5050321;28;20440;-84
2022/10/01 06:52:55;;;;;;;0.77;0.60;;;12.10;99.90;;;;;;5051594;28;20056;-84
2022/10/01 06:55:25;;;;;;;0.50;0.38;;;12.20;99.90;;;;;;5033450;28;20086;-84
2022/10/01 06:58:05;;;;;;;2.17;0.95;;;12.20;99.90;;;;;;5051006;28;20512;-84
2022/10/01 07:00:34;;;;;;;1.55;0.88;;;12.20;99.90;;;;;;5032959;28;20132;-84
2022/10/01 07:03:00;;;;;;;;;;;12.20;99.90;;;;;;5050471;28;20444;-84
2022/10/01 07:05:26;;;;;;;3.13;1.38;;;12.20;99.90;;;;;;5051143;28;19927;-84
2022/10/01 07:07:52;;;;;;;3.00;1.52;;;12.30;99.90;;;;;;5050400;28;20028;-84
2022/10/01 07:10:21;;;;;;;4.95;2.15;;;12.20;99.90;;;;;;5049649;28;20039;-84
2022/10/01 07:12:48;;;;;;;6.28;2.70;;;12.30;99.90;;;;;;5049822;28;20029;-84
2022/10/01 07:15:16;;;;;;;7.75;2.85;;;12.30;99.90;;;;;;5049848;28;20059;-84
2022/10/01 07:17:49;;;;;;;4.63;1.90;;;12.40;99.90;;;;;;5049737;28;20037;-85
2022/10/01 07:20:20;;;;;;;3.30;1.30;;;12.30;99.90;;;;;;5032700;28;20037;-84
2022/10/01 07:22:47;;;;;;;3.37;1.40;;;12.40;99.90;;;;;;5049572;28;20082;-84
2022/10/01 07:25:13;;;;;;;3.20;1.00;;;12.40;99.90;;;;;;5049613;28;20473;-84
2022/10/01 07:27:39;;;;;;;2.42;1.02;;;12.40;99.90;;;;;;5049335;28;20112;-84
2022/10/01 07:30:07;;;;;;;2.78;1.20;;;12.40;99.90;;;;;;5049265;28;20033;-84
2022/10/01 07:32:34;;;;;;;1.75;0.90;;;12.40;99.90;;;;;;5032965;28;20044;-84
2022/10/01 07:35:00;;;;;;;3.15;1.15;;;12.40;99.90;;;;;;5050761;28;20028;-84
2022/10/01 07:37:26;;;;;;;3.03;0.82;;;12.40;99.90;;;;;;5050443;28;20032;-84
2022/10/01 07:39:52;;;;;;;4.38;1.70;;;12.50;99.90;;;;;;5049083;28;20562;-84
2022/10/01 07:42:18;;;;;;;2.63;1.50;;;12.50;99.90;;;;;;5050603;28;20087;-84
2022/10/01 07:44:44;;;;;;;1.58;1.00;;;12.60;99.90;;;;;;5050625;28;20029;-84
2022/10/01 07:47:11;;;;;;;1.77;0.90;;;12.60;99.90;;;;;;5049058;28;20029;-84
2022/10/01 07:49:36;;;;;;;2.08;1.00;;;12.60;99.90;;;;;;5049107;28;20025;-84
2022/10/01 07:52:03;;;;;;;3.30;1.00;;;12.60;99.90;;;;;;5032605;28;20512;-84
2022/10/01 07:54:29;;;;;;;2.45;0.82;;;12.60;99.90;;;;;;5049219;28;20493;-84
2022/10/01 07:56:54;;;;;;;3.13;0.80;;;12.70;99.90;;;;;;5048993;28;20032;-84
2022/10/01 07:59:26;;;;;;;3.70;0.80;;;12.70;99.90;;;;;;5050113;28;20098;-84
2022/10/01 08:01:52;;;;;;;1.98;0.93;;;12.80;99.90;;;;;;5049194;28;20478;-84
2022/10/01 08:07:07;;;;;;;2.88;1.20;;;12.90;99.90;;;;;;5050233;28;20047;-84
2022/10/01 08:09:33;;;;;;;6.05;1.95;;;12.90;99.90;;;;;;5048906;28;20040;-84
2022/10/01 08:11:58;;;;;;;4.88;2.45;;;12.90;99.90;;;;;;5049219;28;20029;-84
2022/10/01 08:14:24;;;;;;;6.15;2.60;;;13.00;99.90;;;;;;5032534;28;20120;-84
2022/10/01 08:16:53;;;;;;;6.20;2.80;;;13.00;99.90;;;;;;5032239;28;20048;-84
2022/10/01 08:19:22;;;;;;;7.30;3.00;;;13.10;99.90;;;;;;5052074;28;20039;-84
2022/10/01 08:21:47;;;;;;;10.45;3.83;;;13.20;99.90;;;;;;5052600;28;20706;-84
2022/10/01 08:24:13;;;;;;;11.93;4.40;;;13.30;99.90;;;;;;5052814;28;20087;-84
2022/10/01 08:26:39;;;;;;;9.38;4.32;;;13.30;99.90;;;;;;5054028;28;20025;-84
2022/10/01 08:29:05;;;;;;;8.57;3.50;;;13.30;99.90;;;;;;5052460;28;20033;-84
2022/10/01 08:31:31;;;;;;;8.25;3.55;;;13.30;99.90;;;;;;5053980;28;20025;-84
2022/10/01 08:33:57;;;;;;;9.70;3.80;;;13.30;99.90;;;;;;5052785;28;20055;-84
2022/10/01 08:36:22;;;;;;;5.78;3.10;;;13.30;99.90;;;;;;5053652;28;20411;-84
2022/10/01 08:38:51;;;;;;;5.05;2.78;;;13.40;99.90;;;;;;5052476;28;20075;-85
2022/10/01 08:41:35;;;;;;;7.03;3.30;;;13.50;99.90;;;;;;5053654;28;20033;-85
2022/10/01 08:44:03;;;;;;;7.30;2.80;;;13.40;99.90;;;;;;5053816;28;20037;-84
2022/10/01 08:46:33;;;;;;;6.97;2.72;;;13.40;99.90;;;;;;5053575;28;20029;-84
2022/10/01 08:49:19;;;;;;;7.95;2.90;;;13.40;99.90;;;;;;5053472;28;20481;-85
2022/10/01 08:52:05;;;;;;;5.45;2.60;;;13.40;99.90;;;;;;5052313;28;20120;-84
2022/10/01 08:54:57;;;;;;;5.80;2.33;;;13.40;99.90;;;;;;5053702;28;20037;-84
2022/10/01 08:57:29;;;;;;;4.20;1.90;;;13.40;99.90;;;;;;5053464;28;20036;-84
2022/10/01 09:00:01;;;;;;;4.75;2.20;;;13.40;99.90;;;;;;5053228;28;20388;-84
2022/10/01 09:02:31;;;;;;;3.47;2.17;;;13.40;99.90;;;;;;5052520;28;20163;-84
2022/10/01 09:05:02;;;;;;;4.22;1.83;;;13.40;99.90;;;;;;5052480;28;20032;-84
2022/10/01 09:07:43;;;;;;;5.63;2.50;;;13.40;99.90;;;;;;5053366;28;20123;-84
2022/10/01 09:10:49;;;;;;;6.80;3.40;;;13.40;99.90;;;;;;5053296;28;20043;-84
2022/10/01 09:13:46;;;;;;;5.45;2.40;;;13.50;99.90;;;;;;5053338;28;20486;-83
2022/10/01 09:16:47;;;;;;;5.88;2.50;;;13.40;99.90;;;;;;5053242;28;20104;-84
2022/10/01 09:19:55;;;;;;;6.72;2.50;;;13.40;99.90;;;;;;5036918;28;20045;-84
2022/10/01 09:22:37;;;;;;;4.80;2.28;;;13.40;99.90;;;;;;5053875;28;20037;-84
2022/10/01 09:25:18;;;;;;;7.47;2.95;;;13.50;99.90;;;;;;5054191;28;20047;-84
2022/10/01 09:27:45;;;;;;;4.80;2.75;;;13.40;99.90;;;;;;5054166;28;20033;-84
2022/10/01 09:30:23;;;;;;;5.05;2.50;;;13.50;99.90;;;;;;5051670;28;20025;-84
2022/10/01 09:33:07;;;;;;;7.35;2.75;;;13.60;99.90;;;;;;5054797;28;20037;-83
2022/10/01 09:36:05;;;;;;;4.60;2.40;;;13.60;99.90;;;;;;5052530;28;20068;-83
2022/10/01 09:38:51;;;;;;;5.40;2.50;;;13.60;99.90;;;;;;5048802;22;20069;-86
2022/10/01 09:41:18;;;;;;;5.60;2.65;;;13.60;99.90;;;;;;5053243;28;20087;-85
2022/10/01 09:43:44;;;;;;;5.18;2.50;;;13.60;99.90;;;;;;5053374;28;20033;-85
2022/10/01 09:46:16;;;;;;;8.40;3.50;;;13.60;99.90;;;;;;5053255;28;20031;-85
2022/10/01 09:48:47;;;;;;;6.18;1.65;;;13.60;99.90;;;;;;5068388;28;20024;-85
2022/10/01 09:51:30;;;;;;;5.75;2.63;;;13.60;99.90;;;;;;5051877;28;20029;-85
2022/10/01 09:54:13;;;;;;;6.55;2.65;;;13.50;99.90;;;;;;5053499;28;20033;-83
2022/10/01 09:56:46;;;;;;;6.28;2.50;;;13.50;99.90;;;;;;5051884;28;20028;-84
2022/10/01 09:59:42;;;;;;;4.63;2.85;;;13.50;99.90;;;;;;5052340;28;20039;-85
2022/10/01 10:02:20;;;;;;;8.85;3.58;;;13.60;99.90;;;;;;5052375;28;20025;-85
2022/10/01 10:04:46;;;;;;;7.65;3.90;;;13.60;99.90;;;;;;5052411;28;20035;-85
2022/10/01 10:07:17;;;;;;;7.28;3.50;;;13.60;99.90;;;;;;5051030;28;20075;-85
2022/10/01 10:09:44;;;;;;;8.38;2.90;;;13.70;99.90;;;;;;5050679;28;20104;-85
2022/10/01 10:12:26;;;;;;;5.45;3.00;;;13.70;99.90;;;;;;5050877;28;20036;-85
2022/10/01 10:14:55;;;;;;;6.10;3.60;;;13.70;99.90;;;;;;5052160;28;20519;-85
2022/10/01 10:17:21;;;;;;;5.07;2.83;;;13.80;99.90;;;;;;5052317;28;20059;-85
2022/10/01 10:19:50;;;;;;;4.85;2.70;;;13.90;99.90;;;;;;5051633;28;20033;-85
2022/10/01 10:22:26;;;;;;;5.80;2.70;;;13.90;99.90;;;;;;5051897;28;20031;-85
2022/10/01 10:24:56;;;;;;;5.25;2.78;;;14.00;99.90;;;;;;5051926;28;20473;-85
2022/10/01 10:27:28;;;;;;;4.30;2.55;;;14.00;99.90;;;;;;5034098;28;20029;-85
2022/10/01 10:30:14;;;;;;;4.47;2.60;;;14.10;99.90;;;;;;5050384;28;20035;-84
2022/10/01 10:32:42;;;;;;;5.70;2.60;;;14.10;99.90;;;;;;5051719;28;20652;-84
2022/10/01 10:35:12;;;;;;;8.27;2.50;;;14.10;99.90;;;;;;5051630;28;20029;-84
2022/10/01 10:37:45;;;;;;;6.72;2.75;;;14.10;99.90;;;;;;5051495;28;20474;-84
2022/10/01 10:40:41;;;;;;;6.75;2.55;;;14.20;99.90;;;;;;5051045;28;20501;-84
2022/10/01 10:43:21;;;;;;;5.82;2.30;;;14.20;99.90;;;;;;5037654;28;20041;-84
2022/10/01 10:45:54;;;;;;;5.38;2.30;;;14.10;99.90;;;;;;5051283;28;20465;-84
2022/10/01 10:48:23;;;;;;;7.18;2.63;;;14.20;99.90;;;;;;5050135;28;20083;-84
2022/10/01 10:50:56;;;;;;;10.18;3.10;;;14.30;99.90;;;;;;5051263;28;20079;-84
2022/10/01 10:53:26;;;;;;;6.88;2.58;;;14.30;99.90;;;;;;5051478;28;20036;-84
2022/10/01 10:55:59;;;;;;;8.95;3.20;;;14.50;99.90;;;;;;5051160;28;20040;-84
2022/10/01 10:58:29;;;;;;;10.55;2.92;;;14.60;99.90;;;;;;5049989;28;20043;-84
2022/10/01 11:01:16;;;;;;;11.18;3.42;;;14.60;99.90;;;;;;5033448;28;20093;-84
2022/10/01 11:03:54;;;;;;;11.60;3.47;;;14.60;99.90;;;;;;5051269;28;20478;-84
2022/10/01 11:06:19;;;;;;;8.57;3.30;;;14.60;99.90;;;;;;5050979;28;20032;-84
2022/10/01 11:08:56;;;;;;;9.20;3.40;;;14.70;99.90;;;;;;5049503;28;20108;-84
2022/10/01 11:11:40;;;;;;;13.30;3.50;;;14.80;99.90;;;;;;5049671;28;20036;-84
2022/10/01 11:14:25;;;;;;;8.15;3.65;;;14.80;99.90;;;;;;5051194;28;20032;-85
2022/10/01 11:17:18;;;;;;;12.43;3.95;;;14.90;99.90;;;;;;5050689;28;20039;-85
2022/10/01 11:20:12;;;;;;;8.77;3.30;;;14.90;99.90;;;;;;5050567;28;20462;-84
2022/10/01 11:23:10;;;;;;;9.77;3.45;;;15.00;99.90;;;;;;5050866;28;20031;-84
2022/10/01 11:25:57;;;;;;;10.23;3.42;;;15.10;99.90;;;;;;5049449;28;20032;-85
2022/10/01 11:28:35;;;;;;;10.88;3.30;;;15.10;99.90;;;;;;5051020;28;20381;-84
2022/10/01 11:31:31;;;;;;;8.70;3.50;;;15.10;99.90;;;;;;5050723;28;20036;-84
2022/10/01 11:34:20;;;;;;;8.73;3.40;;;15.20;99.90;;;;;;5051079;28;20074;-85
2022/10/01 11:37:09;;;;;;;;;;;15.20;99.90;;;;;;5025130;28;20657;-85
2022/10/01 11:39:37;;;;;;;;;;;15.10;99.90;;;;;;5049354;28;20008;-85
2022/10/01 11:42:13;;;;;;;13.55;4.32;;;15.10;99.90;;;;;;5050845;28;20023;-84
2022/10/01 11:44:43;;;;;;;14.13;4.60;;;15.00;99.90;;;;;;5049555;28;20025;-84
2022/10/01 11:47:14;;;;;;;12.05;4.93;;;14.90;99.90;;;;;;5050576;28;20033;-85
2022/10/01 11:49:51;;;;;;;12.23;5.00;;;14.80;99.90;;;;;;5050417;28;20025;-85
2022/10/01 11:52:45;;;;;;;12.48;5.13;;;14.70;99.90;;;;;;5049637;28;20032;-84
2022/10/01 12:01:23;;;;;;;11.95;4.07;;;14.60;99.90;;;;;;5054652;28;20025;-84
2022/10/01 12:03:51;;;;;;;9.13;4.32;;;14.50;99.90;;;;;;5055021;28;20044;-84
2022/10/01 12:06:22;;;;;;;10.50;4.85;;;14.50;99.90;;;;;;5053193;28;20033;-85
2022/10/01 12:09:00;;;;;;;10.68;5.32;;;14.40;99.90;;;;;;5054243;28;20032;-84
2022/10/01 12:11:52;;;;;;;12.57;5.80;;;14.50;99.90;;;;;;5054604;28;20033;-84
2022/10/01 12:14:30;;;;;;;9.95;4.65;;;14.50;99.90;;;;;;5046316;28;20045;-87
2022/10/01 12:17:19;;;;;;;11.68;5.10;;;14.60;99.90;;;;;;5055543;28;20485;-88
2022/10/01 12:19:58;;;;;;;13.63;4.57;;;14.70;99.90;;;;;;5059045;22;20424;-71
2022/10/01 12:22:24;;;;;;;;;;;14.90;99.90;;;;;;5054435;28;20036;-73
2022/10/01 12:24:51;;;;;;;8.20;2.83;;;15.00;99.90;;;;;;5053252;28;19916;-77
2022/10/01 12:27:26;;;;;;;9.20;2.50;;;15.30;99.90;;;;;;5054492;28;20020;-73
2022/10/01 12:30:11;;;;;;;11.55;2.70;;;15.40;99.90;;;;;;5054423;28;20036;-76
2022/10/01 12:33:09;;;;;;;10.35;2.40;;;15.50;99.90;;;;;;5055789;28;20061;-73
2022/10/01 12:35:59;;;;;;;10.60;2.78;;;15.70;99.90;;;;;;5056113;28;20029;-74
2022/10/01 12:38:33;;;;;;;14.07;2.40;;;15.70;99.90;;;;;;5054446;28;20029;-70
2022/10/01 12:41:28;;;;;;;11.68;1.90;;;16.00;99.90;;;;;;5053871;28;20509;-72
2022/10/01 12:44:26;;;;;;;8.05;2.03;;;16.10;99.90;;;;;;5053992;28;20028;-74
2022/10/01 12:47:13;;;;;;;8.88;2.28;;;16.30;99.90;;;;;;5053876;28;20548;-74
2022/10/01 12:50:03;;;;;;;10.88;1.92;;;16.30;99.90;;;;;;5039960;28;20371;-75
2022/10/01 12:52:54;;;;;;;17.17;2.47;;;16.40;99.90;;;;;;5052367;28;20048;-76
2022/10/01 12:55:33;;;;;;;9.35;1.70;;;16.40;99.90;;;;;;5053592;28;20072;-77
2022/10/01 12:58:26;;;;;;;12.45;2.40;;;16.40;99.90;;;;;;5053976;28;20516;-76
2022/10/01 13:01:07;;;;;;;10.48;2.63;;;16.30;99.90;;;;;;5052027;28;20033;-73
2022/10/01 13:04:00;;;;;;;12.38;2.38;;;16.30;99.90;;;;;;5053632;28;20097;-78
2022/10/01 13:06:45;;;;;;;11.50;2.95;;;16.40;99.90;;;;;;5054039;28;20035;-77
2022/10/01 13:09:32;;;;;;;13.20;2.53;;;16.40;99.90;;;;;;5052861;28;20091;-75
2022/10/01 13:12:10;;;;;;;9.70;1.85;;;16.20;99.90;;;;;;5053544;28;20036;-76
2022/10/01 13:14:37;;;;;;;10.18;2.55;;;16.20;99.90;;;;;;5052240;28;20440;-74
2022/10/01 13:17:25;;;;;;;12.32;3.03;;;16.00;99.90;;;;;;5053515;28;20037;-74
2022/10/01 13:20:00;;;;;;;12.75;2.60;;;15.90;99.90;;;;;;5052970;28;20029;-75
2022/10/01 13:22:33;;;;;;;12.43;2.63;;;15.90;99.90;;;;;;5064539;28;20369;-73
2022/10/01 13:25:07;;;;;;;8.60;2.10;;;15.90;99.90;;;;;;5073254;28;20036;-73